SWA782 KMCO-MDPC
Flight info
| Callsign | SWA782 |
|---|---|
| Flight time | 2h 5m |
| Altitude | 37000 |
| Route | DDANY3 VALKA DCT ZFP BR1L BENIE DCT CHASO Y306 HAGIT DCT POKEG DCT BEREL BEREL1W |
| Aircraft | B738/M-SADE2E3GIJ4RWZ/LB1D1 |
Departure
| Time | 2026-04-20 23:02 |
|---|---|
| Airport | Orlando International Airport (KMCO) |
Arrival
| Time | 2026-04-21 01:07 |
|---|---|
| Airport | Punta Cana International Airport (MDPC) |
| Time | Latitude | Longitude | Altitude | Speed | Heading |
|---|---|---|---|---|---|
| 2026-04-20 22:53 | 28.43360 | -81.30016 | 90 ft | 0 kts | 342° |
| 2026-04-20 22:53 | 28.43350 | -81.30012 | 90 ft | 2 kts | 338° |
| 2026-04-20 22:54 | 28.43335 | -81.30006 | 90 ft | 2 kts | 341° |
| 2026-04-20 22:54 | 28.43321 | -81.30000 | 90 ft | 2 kts | 340° |
| 2026-04-20 22:54 | 28.43307 | -81.29995 | 90 ft | 2 kts | 340° |
| 2026-04-20 22:54 | 28.43293 | -81.29989 | 90 ft | 2 kts | 340° |
| 2026-04-20 22:55 | 28.43282 | -81.29984 | 90 ft | 1 kts | 340° |
| 2026-04-20 22:55 | 28.43278 | -81.29984 | 90 ft | 0 kts | 343° |
| 2026-04-20 22:56 | 28.43295 | -81.29973 | 90 ft | 6 kts | 53° |
| 2026-04-20 22:56 | 28.43321 | -81.29898 | 90 ft | 14 kts | 71° |
| 2026-04-20 22:57 | 28.43282 | -81.29792 | 90 ft | 20 kts | 174° |
| 2026-04-20 22:57 | 28.43108 | -81.29801 | 90 ft | 28 kts | 180° |
| 2026-04-20 22:57 | 28.42889 | -81.29797 | 90 ft | 31 kts | 179° |
| 2026-04-20 22:57 | 28.42673 | -81.29800 | 87 ft | 31 kts | 181° |
| 2026-04-20 22:58 | 28.42461 | -81.29797 | 87 ft | 29 kts | 178° |
| 2026-04-20 22:58 | 28.42266 | -81.29791 | 89 ft | 27 kts | 179° |
| 2026-04-20 22:58 | 28.42082 | -81.29790 | 90 ft | 25 kts | 180° |
| 2026-04-20 22:58 | 28.41904 | -81.29788 | 90 ft | 25 kts | 179° |
| 2026-04-20 22:59 | 28.41719 | -81.29786 | 88 ft | 27 kts | 179° |
| 2026-04-20 22:59 | 28.41521 | -81.29783 | 87 ft | 29 kts | 180° |
| 2026-04-20 22:59 | 28.41311 | -81.29781 | 85 ft | 30 kts | 179° |
| 2026-04-20 22:59 | 28.41091 | -81.29778 | 83 ft | 32 kts | 180° |
| 2026-04-20 23:00 | 28.40935 | -81.29727 | 82 ft | 20 kts | 102° |
| 2026-04-20 23:00 | 28.40959 | -81.29573 | 82 ft | 20 kts | 31° |
| 2026-04-20 23:00 | 28.41116 | -81.29563 | 84 ft | 30 kts | 359° |
| 2026-04-20 23:00 | 28.41465 | -81.29559 | 87 ft | 79 kts | 1° |
| 2026-04-20 23:01 | 28.42140 | -81.29565 | 87 ft | 101 kts | 358° |
| 2026-04-20 23:01 | 28.42865 | -81.29574 | 89 ft | 106 kts | 0° |
| 2026-04-20 23:01 | 28.43710 | -81.29613 | 181 ft | 141 kts | 1° |
| 2026-04-20 23:01 | 28.44782 | -81.29641 | 632 ft | 174 kts | 4° |
| 2026-04-20 23:02 | 28.46030 | -81.29562 | 1351 ft | 177 kts | 14° |
| 2026-04-20 23:02 | 28.47045 | -81.28954 | 1953 ft | 173 kts | 52° |
| 2026-04-20 23:02 | 28.47425 | -81.27626 | 2386 ft | 188 kts | 79° |
| 2026-04-20 23:02 | 28.47712 | -81.26136 | 2768 ft | 199 kts | 65° |
| 2026-04-20 23:03 | 28.48407 | -81.24746 | 3153 ft | 211 kts | 54° |
| 2026-04-20 23:03 | 28.49322 | -81.23336 | 3538 ft | 227 kts | 52° |
| 2026-04-20 23:03 | 28.50254 | -81.21811 | 3902 ft | 244 kts | 60° |
| 2026-04-20 23:03 | 28.50808 | -81.19947 | 4399 ft | 256 kts | 76° |
| 2026-04-20 23:04 | 28.51088 | -81.17943 | 4999 ft | 263 kts | 81° |
| 2026-04-20 23:04 | 28.51022 | -81.15849 | 5256 ft | 277 kts | 98° |
| 2026-04-20 23:04 | 28.50540 | -81.13717 | 6020 ft | 276 kts | 102° |
| 2026-04-20 23:04 | 28.50029 | -81.11614 | 6646 ft | 280 kts | 102° |
| 2026-04-20 23:05 | 28.49530 | -81.09498 | 7287 ft | 284 kts | 102° |
| 2026-04-20 23:05 | 28.49031 | -81.07324 | 7930 ft | 288 kts | 102° |
| 2026-04-20 23:05 | 28.48362 | -81.05143 | 8570 ft | 295 kts | 114° |
| 2026-04-20 23:05 | 28.47109 | -81.03299 | 9183 ft | 303 kts | 136° |
| 2026-04-20 23:06 | 28.45453 | -81.01784 | 9807 ft | 309 kts | 142° |
| 2026-04-20 23:06 | 28.43707 | -81.00340 | 10516 ft | 313 kts | 143° |
| 2026-04-20 23:06 | 28.41929 | -80.98846 | 10850 ft | 328 kts | 142° |
| 2026-04-20 23:06 | 28.40065 | -80.97221 | 11237 ft | 343 kts | 141° |
| 2026-04-20 23:07 | 28.38150 | -80.95507 | 11559 ft | 360 kts | 141° |
| 2026-04-20 23:07 | 28.36162 | -80.93706 | 11973 ft | 374 kts | 141° |
| 2026-04-20 23:07 | 28.34094 | -80.91822 | 12279 ft | 390 kts | 141° |
| 2026-04-20 23:07 | 28.31949 | -80.89867 | 12622 ft | 402 kts | 141° |
| 2026-04-20 23:08 | 28.29768 | -80.87839 | 13303 ft | 405 kts | 138° |
| 2026-04-20 23:08 | 28.27838 | -80.85493 | 13880 ft | 411 kts | 126° |
| 2026-04-20 23:08 | 28.26421 | -80.82655 | 14478 ft | 416 kts | 114° |
| 2026-04-20 23:08 | 28.25289 | -80.79658 | 15092 ft | 421 kts | 111° |
| 2026-04-20 23:09 | 28.24218 | -80.76519 | 15687 ft | 428 kts | 110° |
| 2026-04-20 23:09 | 28.23165 | -80.73364 | 16285 ft | 433 kts | 110° |
| 2026-04-20 23:09 | 28.21933 | -80.70256 | 16830 ft | 439 kts | 120° |
| 2026-04-20 23:09 | 28.20027 | -80.67590 | 17419 ft | 439 kts | 141° |
| 2026-04-20 23:10 | 28.17461 | -80.65767 | 17977 ft | 436 kts | 161° |
| 2026-04-20 23:10 | 28.14601 | -80.64687 | 18570 ft | 435 kts | 168° |
| 2026-04-20 23:10 | 28.11672 | -80.63753 | 19155 ft | 438 kts | 169° |
| 2026-04-20 23:10 | 28.08718 | -80.62826 | 19707 ft | 442 kts | 169° |
| 2026-04-20 23:11 | 28.05753 | -80.61874 | 20260 ft | 446 kts | 168° |
| 2026-04-20 23:11 | 28.02747 | -80.60886 | 20823 ft | 449 kts | 168° |
| 2026-04-20 23:11 | 27.99754 | -80.59886 | 21356 ft | 453 kts | 168° |
| 2026-04-20 23:11 | 27.96689 | -80.58812 | 21769 ft | 461 kts | 166° |
| 2026-04-20 23:12 | 27.93720 | -80.57380 | 22308 ft | 469 kts | 157° |
| 2026-04-20 23:12 | 27.90943 | -80.55444 | 22808 ft | 477 kts | 148° |
| 2026-04-20 23:12 | 27.88360 | -80.52971 | 23213 ft | 487 kts | 139° |
| 2026-04-20 23:12 | 27.86060 | -80.50166 | 23689 ft | 493 kts | 133° |
| 2026-04-20 23:13 | 27.83908 | -80.47160 | 24140 ft | 498 kts | 130° |
| 2026-04-20 23:13 | 27.81796 | -80.44018 | 24554 ft | 503 kts | 129° |
| 2026-04-20 23:13 | 27.79695 | -80.40835 | 24991 ft | 507 kts | 129° |
| 2026-04-20 23:13 | 27.77599 | -80.37685 | 25437 ft | 509 kts | 130° |
| 2026-04-20 23:14 | 27.75427 | -80.34475 | 25839 ft | 513 kts | 131° |
| 2026-04-20 23:14 | 27.73239 | -80.31299 | 26292 ft | 515 kts | 132° |
| 2026-04-20 23:14 | 27.71032 | -80.28146 | 26708 ft | 517 kts | 132° |
| 2026-04-20 23:14 | 27.68784 | -80.24972 | 27083 ft | 520 kts | 133° |
| 2026-04-20 23:15 | 27.66491 | -80.21761 | 27560 ft | 521 kts | 133° |
| 2026-04-20 23:15 | 27.64241 | -80.18622 | 28107 ft | 519 kts | 133° |
| 2026-04-20 23:15 | 27.61979 | -80.15474 | 28654 ft | 518 kts | 134° |
| 2026-04-20 23:15 | 27.59714 | -80.12330 | 29085 ft | 519 kts | 134° |
| 2026-04-20 23:16 | 27.57424 | -80.09154 | 29564 ft | 519 kts | 134° |
| 2026-04-20 23:16 | 27.55178 | -80.06039 | 30111 ft | 516 kts | 133° |
| 2026-04-20 23:16 | 27.52906 | -80.02891 | 30547 ft | 517 kts | 134° |
| 2026-04-20 23:16 | 27.50637 | -79.99752 | 30937 ft | 518 kts | 134° |
| 2026-04-20 23:17 | 27.48350 | -79.96588 | 31307 ft | 519 kts | 134° |
| 2026-04-20 23:17 | 27.46085 | -79.93456 | 31626 ft | 521 kts | 134° |
| 2026-04-20 23:17 | 27.43796 | -79.90290 | 31993 ft | 522 kts | 133° |
| 2026-04-20 23:17 | 27.41485 | -79.87094 | 32321 ft | 524 kts | 133° |
| 2026-04-20 23:18 | 27.39207 | -79.83946 | 32739 ft | 523 kts | 133° |
| 2026-04-20 23:18 | 27.36895 | -79.80755 | 33055 ft | 525 kts | 133° |
| 2026-04-20 23:18 | 27.34606 | -79.77595 | 33465 ft | 524 kts | 133° |
| 2026-04-20 23:18 | 27.32291 | -79.74404 | 33743 ft | 526 kts | 133° |
| 2026-04-20 23:19 | 27.30003 | -79.71252 | 34077 ft | 526 kts | 133° |
| 2026-04-20 23:19 | 27.27676 | -79.68050 | 34491 ft | 524 kts | 133° |
| 2026-04-20 23:19 | 27.25378 | -79.64887 | 34881 ft | 522 kts | 133° |
| 2026-04-20 23:19 | 27.23109 | -79.61767 | 35233 ft | 522 kts | 133° |
| 2026-04-20 23:20 | 27.20801 | -79.58595 | 35554 ft | 521 kts | 134° |
| 2026-04-20 23:20 | 27.18536 | -79.55483 | 35857 ft | 521 kts | 134° |
| 2026-04-20 23:20 | 27.16226 | -79.52309 | 36173 ft | 520 kts | 134° |
| 2026-04-20 23:20 | 27.13944 | -79.49179 | 36464 ft | 520 kts | 134° |
| 2026-04-20 23:21 | 27.11645 | -79.46033 | 36709 ft | 521 kts | 134° |
| 2026-04-20 23:21 | 27.09364 | -79.42916 | 36913 ft | 523 kts | 133° |
| 2026-04-20 23:21 | 27.07040 | -79.39742 | 37128 ft | 523 kts | 134° |
| 2026-04-20 23:21 | 27.04753 | -79.36620 | 37133 ft | 524 kts | 134° |
| 2026-04-20 23:22 | 27.00152 | -79.30331 | 37132 ft | 518 kts | 134° |
| 2026-04-20 23:22 | 26.95581 | -79.24095 | 37133 ft | 522 kts | 134° |
| 2026-04-20 23:23 | 26.90970 | -79.17823 | 37126 ft | 521 kts | 134° |
| 2026-04-20 23:23 | 26.86382 | -79.11588 | 37127 ft | 520 kts | 135° |
| 2026-04-20 23:24 | 26.81782 | -79.05344 | 37123 ft | 519 kts | 134° |
| 2026-04-20 23:24 | 26.77187 | -78.99129 | 37122 ft | 521 kts | 134° |
| 2026-04-20 23:25 | 26.72545 | -78.92849 | 37120 ft | 522 kts | 134° |
| 2026-04-20 23:25 | 26.67974 | -78.86659 | 37121 ft | 519 kts | 134° |
| 2026-04-20 23:26 | 26.63346 | -78.80411 | 37118 ft | 520 kts | 134° |
| 2026-04-20 23:26 | 26.58746 | -78.74199 | 37120 ft | 517 kts | 134° |
| 2026-04-20 23:27 | 26.54576 | -78.67640 | 37118 ft | 525 kts | 126° |
| 2026-04-20 23:27 | 26.50921 | -78.60533 | 37117 ft | 526 kts | 121° |
| 2026-04-20 23:28 | 26.47546 | -78.53361 | 37115 ft | 525 kts | 119° |
| 2026-04-20 23:28 | 26.44188 | -78.46131 | 37113 ft | 525 kts | 120° |
| 2026-04-20 23:29 | 26.40807 | -78.38916 | 37109 ft | 525 kts | 120° |
| 2026-04-20 23:29 | 26.37404 | -78.31731 | 37111 ft | 523 kts | 121° |
| 2026-04-20 23:30 | 26.34004 | -78.24606 | 37108 ft | 523 kts | 121° |
| 2026-04-20 23:30 | 26.30594 | -78.17478 | 37104 ft | 523 kts | 121° |
| 2026-04-20 23:31 | 26.27164 | -78.10329 | 37104 ft | 524 kts | 121° |
| 2026-04-20 23:31 | 26.23751 | -78.03223 | 37103 ft | 522 kts | 121° |
| 2026-04-20 23:32 | 26.20337 | -77.96124 | 37104 ft | 522 kts | 121° |
| 2026-04-20 23:32 | 26.16921 | -77.89025 | 37103 ft | 523 kts | 121° |
| 2026-04-20 23:33 | 26.13467 | -77.81862 | 37098 ft | 523 kts | 121° |
| 2026-04-20 23:33 | 26.10032 | -77.74750 | 37094 ft | 521 kts | 121° |
| 2026-04-20 23:34 | 26.06619 | -77.67692 | 37091 ft | 523 kts | 120° |
| 2026-04-20 23:34 | 26.03169 | -77.60574 | 37097 ft | 522 kts | 120° |
| 2026-04-20 23:35 | 25.98015 | -77.49964 | 37094 ft | 522 kts | 121° |
| 2026-04-20 23:36 | 25.94494 | -77.42969 | 37090 ft | 521 kts | 122° |
| 2026-04-20 23:36 | 25.90870 | -77.36031 | 37091 ft | 520 kts | 123° |
| 2026-04-20 23:37 | 25.87223 | -77.29082 | 37088 ft | 519 kts | 123° |
| 2026-04-20 23:37 | 25.83616 | -77.22182 | 37090 ft | 521 kts | 123° |
| 2026-04-20 23:38 | 25.79991 | -77.15227 | 37090 ft | 519 kts | 122° |
| 2026-04-20 23:38 | 25.76384 | -77.08304 | 37089 ft | 520 kts | 123° |
| 2026-04-20 23:39 | 25.72770 | -77.01374 | 37086 ft | 521 kts | 123° |
| 2026-04-20 23:39 | 25.69146 | -76.94430 | 37083 ft | 519 kts | 122° |
| 2026-04-20 23:40 | 25.65524 | -76.87497 | 37083 ft | 519 kts | 122° |
| 2026-04-20 23:40 | 25.61906 | -76.80589 | 37080 ft | 518 kts | 122° |
| 2026-04-20 23:41 | 25.58299 | -76.73711 | 37078 ft | 520 kts | 122° |
| 2026-04-20 23:41 | 25.54685 | -76.66829 | 37081 ft | 520 kts | 122° |
| 2026-04-20 23:42 | 25.51046 | -76.59908 | 37073 ft | 520 kts | 122° |
| 2026-04-20 23:42 | 25.47423 | -76.53033 | 37074 ft | 518 kts | 123° |
| 2026-04-20 23:43 | 25.43785 | -76.46137 | 37068 ft | 518 kts | 122° |
| 2026-04-20 23:43 | 25.40160 | -76.39275 | 37068 ft | 518 kts | 123° |
| 2026-04-20 23:44 | 25.36544 | -76.32443 | 37061 ft | 518 kts | 123° |
| 2026-04-20 23:44 | 25.32910 | -76.25586 | 37064 ft | 518 kts | 123° |
| 2026-04-20 23:45 | 25.29259 | -76.18710 | 37059 ft | 517 kts | 123° |
| 2026-04-20 23:45 | 25.25621 | -76.11865 | 37061 ft | 517 kts | 123° |
| 2026-04-20 23:46 | 25.21996 | -76.05057 | 37058 ft | 516 kts | 123° |
| 2026-04-20 23:46 | 25.18366 | -75.98251 | 37054 ft | 517 kts | 123° |
| 2026-04-20 23:47 | 25.14698 | -75.91380 | 37050 ft | 517 kts | 123° |
| 2026-04-20 23:47 | 25.11076 | -75.84605 | 37053 ft | 516 kts | 123° |
| 2026-04-20 23:48 | 25.07423 | -75.77787 | 37053 ft | 516 kts | 123° |
| 2026-04-20 23:48 | 25.03768 | -75.70970 | 37053 ft | 516 kts | 123° |
| 2026-04-20 23:49 | 25.00141 | -75.64213 | 37050 ft | 514 kts | 123° |
| 2026-04-20 23:49 | 24.96487 | -75.57415 | 37050 ft | 515 kts | 123° |
| 2026-04-20 23:50 | 24.92841 | -75.50642 | 37049 ft | 514 kts | 123° |
| 2026-04-20 23:50 | 24.89190 | -75.43871 | 37055 ft | 515 kts | 123° |
| 2026-04-20 23:51 | 24.85539 | -75.37116 | 37058 ft | 515 kts | 123° |
| 2026-04-20 23:51 | 24.81888 | -75.30372 | 37060 ft | 514 kts | 123° |
| 2026-04-20 23:52 | 24.78231 | -75.23626 | 37064 ft | 513 kts | 123° |
| 2026-04-20 23:52 | 24.74566 | -75.16872 | 37066 ft | 514 kts | 123° |
| 2026-04-20 23:53 | 24.70917 | -75.10152 | 37064 ft | 513 kts | 123° |
| 2026-04-20 23:53 | 24.67263 | -75.03433 | 37068 ft | 514 kts | 123° |
| 2026-04-20 23:54 | 24.63575 | -74.96667 | 37069 ft | 513 kts | 123° |
| 2026-04-20 23:54 | 24.59936 | -74.89999 | 37069 ft | 512 kts | 123° |
| 2026-04-20 23:55 | 24.56253 | -74.83263 | 37069 ft | 513 kts | 123° |
| 2026-04-20 23:55 | 24.52591 | -74.76575 | 37070 ft | 512 kts | 123° |
| 2026-04-20 23:56 | 24.48913 | -74.69865 | 37070 ft | 513 kts | 123° |
| 2026-04-20 23:56 | 24.45250 | -74.63194 | 37071 ft | 513 kts | 123° |
| 2026-04-20 23:57 | 24.41456 | -74.56656 | 37070 ft | 509 kts | 129° |
| 2026-04-20 23:57 | 24.36967 | -74.50662 | 37070 ft | 505 kts | 136° |
| 2026-04-20 23:58 | 24.32163 | -74.45025 | 37070 ft | 506 kts | 137° |
| 2026-04-20 23:58 | 24.27346 | -74.39484 | 37070 ft | 504 kts | 137° |
| 2026-04-20 23:59 | 24.22532 | -74.33899 | 37070 ft | 505 kts | 137° |
| 2026-04-20 23:59 | 24.17740 | -74.28284 | 37071 ft | 504 kts | 137° |
| 2026-04-21 00:00 | 24.12982 | -74.22679 | 37070 ft | 504 kts | 137° |
| 2026-04-21 00:00 | 24.08224 | -74.17064 | 37070 ft | 502 kts | 137° |
| 2026-04-21 00:01 | 24.03478 | -74.11469 | 37069 ft | 503 kts | 136° |
| 2026-04-21 00:01 | 23.98719 | -74.05866 | 37070 ft | 505 kts | 136° |
| 2026-04-21 00:02 | 23.93935 | -74.00243 | 37068 ft | 506 kts | 136° |
| 2026-04-21 00:02 | 23.89158 | -73.94630 | 37065 ft | 504 kts | 137° |
| 2026-04-21 00:03 | 23.84366 | -73.88993 | 37065 ft | 504 kts | 136° |
| 2026-04-21 00:03 | 23.79602 | -73.83388 | 37064 ft | 504 kts | 136° |
| 2026-04-21 00:04 | 23.74836 | -73.77784 | 37065 ft | 504 kts | 136° |
| 2026-04-21 00:04 | 23.70062 | -73.72179 | 37064 ft | 504 kts | 136° |
| 2026-04-21 00:05 | 23.65280 | -73.66570 | 37060 ft | 503 kts | 136° |
| 2026-04-21 00:05 | 23.60524 | -73.61005 | 37064 ft | 503 kts | 136° |
| 2026-04-21 00:06 | 23.55748 | -73.55424 | 37061 ft | 503 kts | 136° |
| 2026-04-21 00:06 | 23.50945 | -73.49869 | 37059 ft | 503 kts | 136° |
| 2026-04-21 00:07 | 23.46168 | -73.44377 | 37060 ft | 502 kts | 137° |
| 2026-04-21 00:07 | 23.41361 | -73.38857 | 37044 ft | 502 kts | 136° |
| 2026-04-21 00:08 | 23.36533 | -73.33313 | 37038 ft | 501 kts | 137° |
| 2026-04-21 00:08 | 23.31751 | -73.27826 | 37032 ft | 502 kts | 137° |
| 2026-04-21 00:09 | 23.26928 | -73.22294 | 37034 ft | 502 kts | 137° |
| 2026-04-21 00:09 | 23.22157 | -73.16825 | 37033 ft | 502 kts | 136° |
| 2026-04-21 00:10 | 23.17337 | -73.11308 | 37032 ft | 502 kts | 136° |
| 2026-04-21 00:10 | 23.12532 | -73.05813 | 37030 ft | 500 kts | 136° |
| 2026-04-21 00:11 | 23.07758 | -73.00362 | 37029 ft | 500 kts | 136° |
| 2026-04-21 00:11 | 23.02959 | -72.94891 | 37030 ft | 500 kts | 136° |
| 2026-04-21 00:12 | 22.98188 | -72.89453 | 37029 ft | 499 kts | 136° |
| 2026-04-21 00:12 | 22.93607 | -72.83772 | 37029 ft | 500 kts | 131° |
| 2026-04-21 00:13 | 22.89302 | -72.77830 | 37029 ft | 500 kts | 130° |
| 2026-04-21 00:13 | 22.85045 | -72.71899 | 37028 ft | 499 kts | 130° |
| 2026-04-21 00:14 | 22.80721 | -72.65977 | 37028 ft | 500 kts | 130° |
| 2026-04-21 00:14 | 22.76389 | -72.60123 | 37028 ft | 499 kts | 131° |
| 2026-04-21 00:15 | 22.72056 | -72.54301 | 37028 ft | 498 kts | 131° |
| 2026-04-21 00:15 | 22.67695 | -72.48460 | 37029 ft | 498 kts | 131° |
| 2026-04-21 00:16 | 22.63349 | -72.42651 | 37029 ft | 497 kts | 131° |
| 2026-04-21 00:16 | 22.59019 | -72.36860 | 37029 ft | 497 kts | 131° |
| 2026-04-21 00:17 | 22.54656 | -72.31029 | 37029 ft | 495 kts | 131° |
| 2026-04-21 00:17 | 22.50333 | -72.25258 | 37028 ft | 496 kts | 131° |
| 2026-04-21 00:18 | 22.46043 | -72.19538 | 37028 ft | 497 kts | 131° |
| 2026-04-21 00:18 | 22.41694 | -72.13751 | 37028 ft | 496 kts | 131° |
| 2026-04-21 00:19 | 22.37317 | -72.07930 | 37028 ft | 495 kts | 131° |
| 2026-04-21 00:19 | 22.32984 | -72.02173 | 37028 ft | 494 kts | 131° |
| 2026-04-21 00:20 | 22.28616 | -71.96375 | 37028 ft | 495 kts | 131° |
| 2026-04-21 00:20 | 22.24262 | -71.90603 | 37032 ft | 495 kts | 131° |
| 2026-04-21 00:21 | 22.19913 | -71.84845 | 37031 ft | 495 kts | 131° |
| 2026-04-21 00:21 | 22.15556 | -71.79085 | 37030 ft | 493 kts | 131° |
| 2026-04-21 00:22 | 22.11203 | -71.73336 | 37029 ft | 494 kts | 131° |
| 2026-04-21 00:22 | 22.06857 | -71.67595 | 37030 ft | 493 kts | 131° |
| 2026-04-21 00:23 | 22.02533 | -71.61890 | 37027 ft | 493 kts | 131° |
| 2026-04-21 00:23 | 21.98184 | -71.56164 | 37028 ft | 494 kts | 131° |
| 2026-04-21 00:24 | 21.93839 | -71.50450 | 37025 ft | 494 kts | 131° |
| 2026-04-21 00:24 | 21.89468 | -71.44703 | 37026 ft | 493 kts | 131° |
| 2026-04-21 00:25 | 21.85138 | -71.39017 | 37025 ft | 492 kts | 131° |
| 2026-04-21 00:25 | 21.80783 | -71.33305 | 37025 ft | 491 kts | 131° |
| 2026-04-21 00:26 | 21.76442 | -71.27620 | 37019 ft | 492 kts | 132° |
| 2026-04-21 00:26 | 21.72122 | -71.21965 | 37024 ft | 493 kts | 132° |
| 2026-04-21 00:27 | 21.67744 | -71.16247 | 37019 ft | 494 kts | 132° |
| 2026-04-21 00:27 | 21.63385 | -71.10557 | 37021 ft | 493 kts | 132° |
| 2026-04-21 00:28 | 21.58995 | -71.04944 | 37021 ft | 492 kts | 135° |
| 2026-04-21 00:28 | 21.53886 | -71.00066 | 37018 ft | 486 kts | 148° |
| 2026-04-21 00:29 | 21.48282 | -70.96068 | 37020 ft | 483 kts | 152° |
| 2026-04-21 00:29 | 21.42583 | -70.92253 | 37023 ft | 482 kts | 152° |
| 2026-04-21 00:30 | 21.36892 | -70.88415 | 37026 ft | 483 kts | 152° |
| 2026-04-21 00:30 | 21.31254 | -70.84544 | 37029 ft | 482 kts | 151° |
| 2026-04-21 00:31 | 21.25615 | -70.80623 | 37028 ft | 482 kts | 151° |
| 2026-04-21 00:31 | 21.19983 | -70.76691 | 37028 ft | 482 kts | 151° |
| 2026-04-21 00:32 | 21.14343 | -70.72748 | 37030 ft | 483 kts | 151° |
| 2026-04-21 00:32 | 21.08733 | -70.68827 | 37027 ft | 483 kts | 151° |
| 2026-04-21 00:33 | 21.03075 | -70.64877 | 37028 ft | 482 kts | 151° |
| 2026-04-21 00:33 | 20.97466 | -70.60963 | 37028 ft | 483 kts | 151° |
| 2026-04-21 00:34 | 20.91813 | -70.57027 | 37027 ft | 483 kts | 151° |
| 2026-04-21 00:34 | 20.86240 | -70.53149 | 37028 ft | 482 kts | 151° |
| 2026-04-21 00:35 | 20.80608 | -70.49233 | 37024 ft | 483 kts | 151° |
| 2026-04-21 00:35 | 20.74977 | -70.45320 | 37023 ft | 481 kts | 151° |
| 2026-04-21 00:36 | 20.69355 | -70.41415 | 37020 ft | 481 kts | 151° |
| 2026-04-21 00:36 | 20.63741 | -70.37519 | 37019 ft | 481 kts | 151° |
| 2026-04-21 00:37 | 20.58114 | -70.33620 | 37017 ft | 481 kts | 151° |
| 2026-04-21 00:37 | 20.52524 | -70.29749 | 37019 ft | 481 kts | 151° |
| 2026-04-21 00:38 | 20.46870 | -70.25839 | 37014 ft | 481 kts | 151° |
| 2026-04-21 00:38 | 20.41243 | -70.21948 | 37014 ft | 480 kts | 151° |
| 2026-04-21 00:39 | 20.35644 | -70.18081 | 37010 ft | 480 kts | 151° |
| 2026-04-21 00:39 | 20.30016 | -70.14201 | 37009 ft | 479 kts | 151° |
| 2026-04-21 00:40 | 20.24431 | -70.10351 | 37010 ft | 479 kts | 151° |
| 2026-04-21 00:40 | 20.18824 | -70.06492 | 37011 ft | 479 kts | 150° |
| 2026-04-21 00:41 | 20.13420 | -70.02288 | 37013 ft | 482 kts | 144° |
| 2026-04-21 00:41 | 20.08305 | -69.97714 | 36677 ft | 478 kts | 142° |
| 2026-04-21 00:41 | 20.05769 | -69.95389 | 36213 ft | 473 kts | 142° |
| 2026-04-21 00:42 | 20.03295 | -69.93127 | 35657 ft | 471 kts | 142° |
| 2026-04-21 00:42 | 20.00784 | -69.90849 | 35036 ft | 472 kts | 142° |
| 2026-04-21 00:42 | 19.98278 | -69.88597 | 34605 ft | 473 kts | 142° |
| 2026-04-21 00:42 | 19.95766 | -69.86354 | 34115 ft | 473 kts | 142° |
| 2026-04-21 00:43 | 19.93261 | -69.84126 | 33611 ft | 469 kts | 142° |
| 2026-04-21 00:43 | 19.90734 | -69.81885 | 33101 ft | 465 kts | 142° |
| 2026-04-21 00:43 | 19.88248 | -69.79684 | 32589 ft | 462 kts | 142° |
| 2026-04-21 00:43 | 19.85809 | -69.77528 | 32072 ft | 460 kts | 142° |
| 2026-04-21 00:44 | 19.83342 | -69.75351 | 31563 ft | 457 kts | 142° |
| 2026-04-21 00:44 | 19.80918 | -69.73212 | 31065 ft | 454 kts | 142° |
| 2026-04-21 00:44 | 19.78516 | -69.71094 | 30575 ft | 451 kts | 142° |
| 2026-04-21 00:45 | 19.73708 | -69.66855 | 29579 ft | 445 kts | 141° |
| 2026-04-21 00:45 | 19.71332 | -69.64760 | 29082 ft | 442 kts | 141° |
| 2026-04-21 00:45 | 19.68982 | -69.62691 | 28594 ft | 439 kts | 141° |
| 2026-04-21 00:45 | 19.66630 | -69.60619 | 28102 ft | 437 kts | 141° |
| 2026-04-21 00:46 | 19.64320 | -69.58586 | 27615 ft | 434 kts | 141° |
| 2026-04-21 00:46 | 19.61987 | -69.56533 | 27122 ft | 431 kts | 141° |
| 2026-04-21 00:46 | 19.59696 | -69.54518 | 26637 ft | 428 kts | 141° |
| 2026-04-21 00:46 | 19.57429 | -69.52525 | 26154 ft | 426 kts | 141° |
| 2026-04-21 00:47 | 19.55160 | -69.50531 | 25671 ft | 423 kts | 141° |
| 2026-04-21 00:47 | 19.52897 | -69.48544 | 25190 ft | 420 kts | 141° |
| 2026-04-21 00:47 | 19.50655 | -69.46575 | 24706 ft | 417 kts | 141° |
| 2026-04-21 00:47 | 19.48418 | -69.44611 | 24230 ft | 414 kts | 141° |
| 2026-04-21 00:48 | 19.46219 | -69.42680 | 23766 ft | 411 kts | 141° |
| 2026-04-21 00:48 | 19.44014 | -69.40745 | 23288 ft | 408 kts | 141° |
| 2026-04-21 00:48 | 19.41837 | -69.38837 | 22825 ft | 405 kts | 141° |
| 2026-04-21 00:48 | 19.39691 | -69.36956 | 22363 ft | 403 kts | 141° |
| 2026-04-21 00:49 | 19.37523 | -69.35056 | 21904 ft | 400 kts | 141° |
| 2026-04-21 00:49 | 19.35394 | -69.33191 | 21441 ft | 398 kts | 141° |
| 2026-04-21 00:49 | 19.33287 | -69.31346 | 20983 ft | 395 kts | 141° |
| 2026-04-21 00:49 | 19.31162 | -69.29485 | 20515 ft | 393 kts | 141° |
| 2026-04-21 00:50 | 19.29071 | -69.27655 | 20054 ft | 390 kts | 140° |
| 2026-04-21 00:50 | 19.26976 | -69.25822 | 19592 ft | 388 kts | 140° |
| 2026-04-21 00:50 | 19.24922 | -69.24027 | 19139 ft | 385 kts | 140° |
| 2026-04-21 00:50 | 19.22854 | -69.22220 | 18687 ft | 382 kts | 140° |
| 2026-04-21 00:51 | 19.20804 | -69.20425 | 18226 ft | 380 kts | 140° |
| 2026-04-21 00:51 | 19.18793 | -69.18664 | 17779 ft | 377 kts | 140° |
| 2026-04-21 00:51 | 19.16792 | -69.16911 | 17331 ft | 374 kts | 140° |
| 2026-04-21 00:51 | 19.14793 | -69.15164 | 16891 ft | 371 kts | 140° |
| 2026-04-21 00:52 | 19.12809 | -69.13432 | 16443 ft | 369 kts | 140° |
| 2026-04-21 00:52 | 19.10823 | -69.11699 | 15986 ft | 367 kts | 140° |
| 2026-04-21 00:52 | 19.08875 | -69.10000 | 15543 ft | 364 kts | 140° |
| 2026-04-21 00:52 | 19.06933 | -69.08307 | 15101 ft | 362 kts | 140° |
| 2026-04-21 00:53 | 19.04991 | -69.06614 | 14661 ft | 359 kts | 140° |
| 2026-04-21 00:53 | 19.03058 | -69.04930 | 14218 ft | 357 kts | 139° |
| 2026-04-21 00:53 | 19.01153 | -69.03271 | 13768 ft | 354 kts | 140° |
| 2026-04-21 00:53 | 18.99271 | -69.01634 | 13333 ft | 352 kts | 140° |
| 2026-04-21 00:54 | 18.97388 | -68.99995 | 12899 ft | 349 kts | 139° |
| 2026-04-21 00:54 | 18.95518 | -68.98367 | 12468 ft | 347 kts | 140° |
| 2026-04-21 00:54 | 18.93653 | -68.96744 | 12025 ft | 341 kts | 139° |
| 2026-04-21 00:54 | 18.91862 | -68.95186 | 11609 ft | 332 kts | 139° |
| 2026-04-21 00:55 | 18.90086 | -68.93643 | 11207 ft | 324 kts | 140° |
| 2026-04-21 00:55 | 18.88372 | -68.92155 | 10809 ft | 316 kts | 139° |
| 2026-04-21 00:55 | 18.86702 | -68.90703 | 10410 ft | 308 kts | 139° |
| 2026-04-21 00:55 | 18.85067 | -68.89281 | 10091 ft | 299 kts | 139° |
| 2026-04-21 00:56 | 18.83508 | -68.87921 | 9955 ft | 283 kts | 137° |
| 2026-04-21 00:56 | 18.82145 | -68.86472 | 9760 ft | 271 kts | 129° |
| 2026-04-21 00:56 | 18.80968 | -68.84951 | 9452 ft | 265 kts | 126° |
| 2026-04-21 00:56 | 18.79856 | -68.83432 | 9171 ft | 258 kts | 126° |
| 2026-04-21 00:57 | 18.78774 | -68.81956 | 8885 ft | 253 kts | 126° |
| 2026-04-21 00:57 | 18.77709 | -68.80522 | 8629 ft | 246 kts | 126° |
| 2026-04-21 00:57 | 18.76638 | -68.79094 | 8366 ft | 249 kts | 127° |
| 2026-04-21 00:57 | 18.75549 | -68.77648 | 8088 ft | 251 kts | 127° |
| 2026-04-21 00:58 | 18.74473 | -68.76222 | 7816 ft | 245 kts | 127° |
| 2026-04-21 00:58 | 18.73428 | -68.74835 | 7551 ft | 240 kts | 127° |
| 2026-04-21 00:58 | 18.72391 | -68.73456 | 7292 ft | 244 kts | 126° |
| 2026-04-21 00:58 | 18.71319 | -68.72033 | 7011 ft | 245 kts | 127° |
| 2026-04-21 00:59 | 18.70269 | -68.70644 | 6743 ft | 239 kts | 127° |
| 2026-04-21 00:59 | 18.69260 | -68.69306 | 6489 ft | 233 kts | 127° |
| 2026-04-21 00:59 | 18.68249 | -68.67960 | 6228 ft | 237 kts | 126° |
| 2026-04-21 00:59 | 18.67217 | -68.66581 | 5962 ft | 237 kts | 126° |
| 2026-04-21 01:00 | 18.66205 | -68.65231 | 5695 ft | 231 kts | 127° |
| 2026-04-21 01:00 | 18.65220 | -68.63920 | 5441 ft | 227 kts | 126° |
| 2026-04-21 01:00 | 18.64219 | -68.62584 | 5187 ft | 233 kts | 126° |
| 2026-04-21 01:00 | 18.63210 | -68.61240 | 4922 ft | 233 kts | 127° |
| 2026-04-21 01:01 | 18.62217 | -68.59920 | 4665 ft | 230 kts | 126° |
| 2026-04-21 01:01 | 18.61227 | -68.58608 | 4440 ft | 226 kts | 128° |
| 2026-04-21 01:01 | 18.60116 | -68.57473 | 4316 ft | 218 kts | 145° |
| 2026-04-21 01:01 | 18.58711 | -68.56902 | 4092 ft | 217 kts | 164° |
| 2026-04-21 01:02 | 18.57249 | -68.56569 | 3857 ft | 214 kts | 164° |
| 2026-04-21 01:02 | 18.55805 | -68.56199 | 3624 ft | 208 kts | 161° |
| 2026-04-21 01:02 | 18.54511 | -68.55622 | 3464 ft | 194 kts | 142° |
| 2026-04-21 01:02 | 18.53672 | -68.54592 | 3303 ft | 181 kts | 116° |
| 2026-04-21 01:03 | 18.53257 | -68.53370 | 3051 ft | 177 kts | 102° |
| 2026-04-21 01:03 | 18.53202 | -68.52113 | 2721 ft | 170 kts | 82° |
| 2026-04-21 01:03 | 18.53528 | -68.50967 | 2451 ft | 158 kts | 72° |
| 2026-04-21 01:03 | 18.53851 | -68.49905 | 2239 ft | 144 kts | 75° |
| 2026-04-21 01:04 | 18.54119 | -68.48939 | 2097 ft | 134 kts | 75° |
| 2026-04-21 01:04 | 18.54378 | -68.48009 | 1932 ft | 132 kts | 76° |
| 2026-04-21 01:04 | 18.54640 | -68.47068 | 1771 ft | 133 kts | 75° |
| 2026-04-21 01:04 | 18.54897 | -68.46139 | 1614 ft | 132 kts | 75° |
| 2026-04-21 01:05 | 18.55151 | -68.45210 | 1440 ft | 133 kts | 75° |
| 2026-04-21 01:05 | 18.55407 | -68.44275 | 1255 ft | 132 kts | 75° |
| 2026-04-21 01:05 | 18.55663 | -68.43325 | 1085 ft | 135 kts | 75° |
| 2026-04-21 01:05 | 18.55921 | -68.42387 | 906 ft | 135 kts | 74° |
| 2026-04-21 01:06 | 18.56166 | -68.41425 | 692 ft | 136 kts | 77° |
| 2026-04-21 01:06 | 18.56419 | -68.40464 | 535 ft | 136 kts | 72° |
| 2026-04-21 01:06 | 18.56696 | -68.39498 | 344 ft | 138 kts | 74° |
| 2026-04-21 01:06 | 18.56967 | -68.38526 | 150 ft | 140 kts | 73° |
| 2026-04-21 01:07 | 18.57237 | -68.37560 | 46 ft | 129 kts | 73° |
| 2026-04-21 01:07 | 18.57462 | -68.36751 | 39 ft | 105 kts | 73° |
| 2026-04-21 01:07 | 18.57605 | -68.36218 | 35 ft | 35 kts | 84° |
| 2026-04-21 01:07 | 18.57607 | -68.36176 | 34 ft | 0 kts | 91° |
| 2026-04-21 01:15 | 18.57607 | -68.36171 | 35 ft | 3 kts | 91° |
| 2026-04-21 01:15 | 18.57606 | -68.36124 | 35 ft | 7 kts | 91° |
| 2026-04-21 01:16 | 18.57601 | -68.36066 | 36 ft | 7 kts | 98° |
| 2026-04-21 01:16 | 18.57590 | -68.36011 | 37 ft | 7 kts | 104° |
| 2026-04-21 01:16 | 18.57573 | -68.35957 | 37 ft | 7 kts | 110° |
| 2026-04-21 01:16 | 18.57555 | -68.35907 | 37 ft | 6 kts | 116° |
| 2026-04-21 01:17 | 18.57526 | -68.35869 | 37 ft | 6 kts | 141° |
| 2026-04-21 01:17 | 18.57489 | -68.35849 | 37 ft | 3 kts | 163° |
| 2026-04-21 01:17 | 18.57464 | -68.35845 | 37 ft | 6 kts | 175° |
| 2026-04-21 01:17 | 18.57411 | -68.35841 | 37 ft | 7 kts | 175° |
| 2026-04-21 01:18 | 18.57357 | -68.35837 | 37 ft | 7 kts | 175° |
| 2026-04-21 01:18 | 18.57303 | -68.35832 | 37 ft | 7 kts | 175° |
| 2026-04-21 01:18 | 18.57249 | -68.35828 | 36 ft | 7 kts | 175° |
| 2026-04-21 01:18 | 18.57195 | -68.35824 | 35 ft | 7 kts | 175° |
| 2026-04-21 01:19 | 18.57141 | -68.35819 | 34 ft | 7 kts | 175° |
| 2026-04-21 01:19 | 18.57087 | -68.35815 | 34 ft | 7 kts | 175° |
| 2026-04-21 01:19 | 18.57033 | -68.35811 | 35 ft | 7 kts | 175° |
| 2026-04-21 01:19 | 18.57001 | -68.35808 | 35 ft | 2 kts | 175° |
| 2026-04-21 01:20 | 18.56973 | -68.35805 | 35 ft | 7 kts | 175° |
| 2026-04-21 01:20 | 18.56919 | -68.35801 | 35 ft | 7 kts | 175° |
| 2026-04-21 01:20 | 18.56865 | -68.35797 | 35 ft | 7 kts | 175° |
| 2026-04-21 01:20 | 18.56811 | -68.35792 | 35 ft | 7 kts | 175° |
| 2026-04-21 01:21 | 18.56757 | -68.35789 | 35 ft | 7 kts | 175° |
| 2026-04-21 01:21 | 18.56703 | -68.35784 | 37 ft | 7 kts | 175° |
| 2026-04-21 01:21 | 18.56649 | -68.35780 | 38 ft | 7 kts | 175° |
| 2026-04-21 01:21 | 18.56595 | -68.35776 | 38 ft | 7 kts | 175° |
| 2026-04-21 01:22 | 18.56553 | -68.35773 | 38 ft | 3 kts | 175° |
| 2026-04-21 01:22 | 18.56532 | -68.35771 | 38 ft | 4 kts | 188° |
| 2026-04-21 01:22 | 18.56509 | -68.35786 | 38 ft | 3 kts | 230° |
| 2026-04-21 01:22 | 18.56502 | -68.35814 | 38 ft | 4 kts | 270° |
| 2026-04-21 01:23 | 18.56501 | -68.35866 | 37 ft | 7 kts | 269° |
| 2026-04-21 01:23 | 18.56500 | -68.35923 | 37 ft | 7 kts | 269° |
| 2026-04-21 01:23 | 18.56499 | -68.35980 | 37 ft | 7 kts | 269° |
| 2026-04-21 01:23 | 18.56498 | -68.36033 | 37 ft | 5 kts | 269° |
| 2026-04-21 01:24 | 18.56498 | -68.36056 | 37 ft | 0 kts | 269° |
| 2026-04-21 01:24 | 18.56495 | -68.36076 | 37 ft | 6 kts | 257° |
| 2026-04-21 01:24 | 18.56475 | -68.36117 | 37 ft | 6 kts | 230° |
| 2026-04-21 01:24 | 18.56441 | -68.36144 | 37 ft | 6 kts | 203° |
| 2026-04-21 01:25 | 18.56403 | -68.36151 | 37 ft | 3 kts | 180° |
| 2026-04-21 01:25 | 18.56393 | -68.36150 | 37 ft | 0 kts | 175° |